Time;durP1;ratioP1;P1;durP2;ratioP2;P2;SDS_P1;SDS_P2;PMS_P1;PMS_P2;Temp;Humidity;BMP_temperature;BMP_pressure;BME280_temperature;BME280_humidity;BME280_pressure;Samples;Min_cycle;Max_cycle;Signal;HPM_P1;HPM_P2
2022/10/22 00:01:13;;;;;;;;;4.00;4.00;;;;;13.50;83.36;99326.13;5096339;28;8838;-60
2022/10/22 00:03:41;;;;;;;;;3.50;3.25;;;;;13.50;83.01;99331.47;5096519;28;9831;-60
2022/10/22 00:06:09;;;;;;;;;2.00;2.00;;;;;13.51;83.09;99340.34;5095955;28;8853;-61
2022/10/22 00:08:36;;;;;;;;;2.50;2.50;;;;;13.51;82.69;99332.31;5096007;28;8846;-60
2022/10/22 00:11:04;;;;;;;;;1.00;1.00;;;;;13.51;82.97;99341.16;5096150;28;8896;-62
2022/10/22 00:13:32;;;;;;;;;3.00;3.00;;;;;13.51;83.14;99335.81;5096074;28;8818;-60
2022/10/22 00:16:00;;;;;;;;;3.50;3.50;;;;;13.51;83.13;99338.50;5094701;28;8842;-60
2022/10/22 00:18:27;;;;;;;;;3.25;3.25;;;;;13.52;82.65;99344.69;5096156;28;8826;-60
2022/10/22 00:20:55;;;;;;;;;1.00;1.00;;;;;13.54;83.07;99345.38;5096346;28;9573;-62
2022/10/22 00:23:23;;;;;;;;;2.50;2.50;;;;;13.55;82.44;99344.38;5096454;28;8810;-60
2022/10/22 00:25:50;;;;;;;;;3.50;1.00;;;;;13.56;82.40;99341.56;5096111;28;8830;-62
2022/10/22 00:28:18;;;;;;;;;1.00;1.00;;;;;13.57;82.48;99358.44;5095546;28;8837;-60
2022/10/22 00:30:46;;;;;;;;;3.25;2.25;;;;;13.57;82.70;99350.41;5095663;28;8888;-60
2022/10/22 00:33:13;;;;;;;;;3.50;3.25;;;;;13.57;82.85;99345.06;5096028;28;8846;-61
2022/10/22 00:35:42;;;;;;;;;1.00;1.00;;;;;13.56;82.73;99340.69;5096239;28;9822;-59
2022/10/22 00:38:10;;;;;;;;;2.00;1.00;;;;;13.56;83.17;99346.06;5096246;28;8834;-61
2022/10/22 00:40:38;;;;;;;;;3.75;3.75;;;;;13.56;82.23;99346.06;5096350;28;9554;-60
2022/10/22 00:43:05;;;;;;;;;3.50;3.25;;;;;13.56;82.05;99346.06;5095714;28;8891;-61
2022/10/22 00:45:33;;;;;;;;;3.00;3.00;;;;;13.55;82.45;99339.03;5095633;28;8837;-60
2022/10/22 00:48:01;;;;;;;;;3.00;3.00;;;;;13.54;82.34;99351.59;5095676;28;9503;-60
2022/10/22 00:50:28;;;;;;;;;1.00;1.00;;;;;13.52;82.02;99350.88;5096885;28;8822;-61
2022/10/22 00:52:56;;;;;;;;;5.00;5.00;;;;;13.53;82.58;99347.19;5102462;28;9749;-61
2022/10/22 00:55:24;;;;;;;;;3.00;3.00;;;;;13.57;82.66;99350.41;5102287;28;8838;-60
2022/10/22 00:57:51;;;;;;;;;4.00;4.00;;;;;13.58;82.40;99344.91;5102337;28;8826;-61
2022/10/22 01:00:19;;;;;;;;;2.50;2.50;;;;;13.60;82.32;99350.94;5102179;28;8919;-60
2022/10/22 01:02:47;;;;;;;;;3.50;3.00;;;;;13.58;82.58;99339.56;5102176;28;8814;-61
2022/10/22 01:05:15;;;;;;;;;2.00;1.00;;;;;13.59;82.71;99345.75;5102109;28;8842;-60
2022/10/22 01:07:43;;;;;;;;;3.00;3.00;;;;;13.57;81.99;99345.06;5102189;28;8838;-60
2022/10/22 01:10:10;;;;;;;;;3.00;3.00;;;;;13.55;82.26;99349.72;5102255;28;8899;-60
2022/10/22 01:12:38;;;;;;;;;3.25;3.25;;;;;13.52;82.45;99337.50;5102331;28;8902;-60
2022/10/22 01:15:07;;;;;;;;;3.50;3.50;;;;;13.50;82.79;99341.31;5102710;28;8868;-59
2022/10/22 01:17:34;;;;;;;;;8.50;6.00;;;;;13.50;82.26;99342.16;5102297;28;8830;-60
2022/10/22 01:20:02;;;;;;;;;3.00;3.00;;;;;13.49;82.61;99339.63;5102574;28;9499;-60
2022/10/22 01:22:30;;;;;;;;;3.00;3.00;;;;;13.51;82.75;99332.31;5102145;28;8834;-59
2022/10/22 01:24:57;;;;;;;;;1.00;1.00;;;;;13.49;82.27;99324.44;5102308;28;8838;-61
2022/10/22 01:27:25;;;;;;;;;3.00;3.00;;;;;13.49;82.42;99323.59;5102157;28;8916;-61
2022/10/22 01:29:53;;;;;;;;;2.50;2.00;;;;;13.48;82.29;99329.94;5101741;28;8818;-60
2022/10/22 01:32:20;;;;;;;;;3.00;3.00;;;;;13.48;82.21;99329.94;5101742;28;8814;-59
2022/10/22 01:34:48;;;;;;;;;3.50;3.50;;;;;13.46;83.17;99324.78;5102121;28;8838;-60
2022/10/22 01:37:16;;;;;;;;;3.50;3.00;;;;;13.44;82.59;99321.38;5100895;28;8818;-59
2022/10/22 01:39:43;;;;;;;;;5.00;3.50;;;;;13.43;82.94;99327.72;5102044;28;8877;-60
2022/10/22 01:42:11;;;;;;;;;4.00;3.00;;;;;13.41;82.62;99320.84;5102093;28;9577;-60
2022/10/22 01:44:39;;;;;;;;;3.25;3.25;;;;;13.37;82.19;99300.78;5100842;28;8830;-59
2022/10/22 01:47:06;;;;;;;;;3.50;3.25;;;;;13.34;82.35;99307.28;5101886;28;8850;-60
2022/10/22 01:49:34;;;;;;;;;5.00;4.50;;;;;13.29;82.84;99312.22;5102154;28;9527;-60
2022/10/22 01:52:02;;;;;;;;;5.50;4.00;;;;;13.27;82.44;99306.22;5102158;28;8826;-59
2022/10/22 01:54:30;;;;;;;;;5.50;3.25;;;;;13.22;83.42;99296.97;5101657;28;8902;-59
2022/10/22 01:56:57;;;;;;;;;3.25;3.25;;;;;13.19;82.73;99299.94;5100926;28;8841;-59
2022/10/22 01:59:25;;;;;;;;;3.75;3.75;;;;;13.17;82.50;99296.59;5101379;28;8806;-61
2022/10/22 02:01:54;;;;;;;;;2.00;1.00;;;;;13.15;83.17;99293.25;5100922;28;8822;-61
2022/10/22 02:04:22;;;;;;;;;1.00;1.00;;;;;13.13;82.71;99290.72;5097951;28;9530;-59
2022/10/22 02:06:50;;;;;;;;;3.00;3.00;;;;;13.12;82.76;99282.84;5098322;28;8895;-60
2022/10/22 02:09:18;;;;;;;;;4.00;3.00;;;;;13.10;83.38;99284.84;5098466;28;8830;-60
2022/10/22 02:11:45;;;;;;;;;1.50;1.50;;;;;13.10;82.66;99290.19;5098192;28;8854;-61
2022/10/22 02:14:13;;;;;;;;;1.00;1.00;;;;;13.09;82.90;99284.00;5097906;28;8841;-61
2022/10/22 02:16:41;;;;;;;;;4.00;4.00;;;;;13.10;83.30;99290.19;5097829;28;8874;-61
2022/10/22 02:19:09;;;;;;;;;3.50;2.00;;;;;13.11;82.89;99297.19;5097828;28;8826;-61
2022/10/22 02:21:36;;;;;;;;;2.50;2.50;;;;;13.12;83.30;99288.19;5097861;28;8899;-61
2022/10/22 02:24:04;;;;;;;;;3.25;2.00;;;;;13.12;82.64;99299.72;5097605;28;8842;-60
2022/10/22 02:26:32;;;;;;;;;3.25;3.25;;;;;13.15;82.52;99301.25;5098162;28;8814;-59
2022/10/22 02:29:00;;;;;;;;;3.00;3.00;;;;;13.15;82.66;99287.91;5097561;28;8826;-61
2022/10/22 02:31:28;;;;;;;;;3.00;3.00;;;;;13.16;83.07;99313.63;5097977;28;9508;-61
2022/10/22 02:33:55;;;;;;;;;2.00;2.00;;;;;13.17;82.69;99317.97;5097948;28;8860;-59
2022/10/22 02:36:23;;;;;;;;;3.00;3.00;;;;;13.17;82.81;99309.97;5098136;28;8858;-59
2022/10/22 02:38:51;;;;;;;;;1.00;1.00;;;;;13.17;82.41;99301.94;5097751;28;8910;-62
2022/10/22 02:41:19;;;;;;;;;3.75;3.00;;;;;13.19;82.77;99305.28;5097800;28;8834;-61
2022/10/22 02:43:46;;;;;;;;;3.00;3.00;;;;;13.20;82.78;99307.00;5098061;28;8822;-62
2022/10/22 02:46:14;;;;;;;;;3.50;3.00;;;;;13.22;82.21;99316.50;5097889;28;8935;-59
2022/10/22 02:48:42;;;;;;;;;3.00;3.00;;;;;13.25;82.79;99312.69;5098065;28;8958;-60
2022/10/22 02:51:10;;;;;;;;;5.00;3.75;;;;;13.28;82.30;99309.75;5097844;28;9570;-61
2022/10/22 02:53:38;;;;;;;;;3.00;2.00;;;;;13.29;82.87;99320.25;5097800;28;8829;-61
2022/10/22 02:56:05;;;;;;;;;4.00;3.25;;;;;13.30;82.03;99321.94;5097613;28;8885;-59
2022/10/22 02:58:33;;;;;;;;;3.00;3.00;;;;;13.30;82.36;99315.75;5097557;28;9495;-61
2022/10/22 03:01:00;;;;;;;;;3.75;3.00;;;;;13.31;82.50;99317.44;5097043;28;8838;-59
2022/10/22 03:03:28;;;;;;;;;4.00;3.50;;;;;13.30;82.73;99318.44;5097145;28;8834;-60
2022/10/22 03:05:56;;;;;;;;;4.50;3.00;;;;;13.29;82.35;99316.75;5097261;28;8846;-60
2022/10/22 03:08:24;;;;;;;;;5.00;5.00;;;;;13.23;82.63;99312.03;5097420;28;8810;-61
2022/10/22 03:10:51;;;;;;;;;0.00;0.00;;;;;13.19;82.47;99310.63;5097469;28;10295;-60
2022/10/22 03:13:19;;;;;;;;;7.50;6.25;;;;;13.14;82.42;99315.63;5096723;28;8907;-61
2022/10/22 03:15:47;;;;;;;;;11.75;10.25;;;;;13.09;83.08;99307.22;5097228;28;9519;-62
2022/10/22 03:18:15;;;;;;;;;28.50;24.50;;;;;13.05;82.61;99319.22;5097051;28;8850;-59
2022/10/22 03:20:42;;;;;;;;;19.25;17.75;;;;;13.02;83.08;99330.19;5097239;28;8968;-60
2022/10/22 03:23:10;;;;;;;;;6.00;6.00;;;;;13.00;82.89;99322.31;5096838;28;8830;-59
2022/10/22 03:25:37;;;;;;;;;9.50;9.00;;;;;13.02;82.89;99327.53;5097104;28;9636;-60
2022/10/22 03:28:05;;;;;;;;;6.00;6.00;;;;;13.02;82.63;99335.56;5096578;28;8935;-58
2022/10/22 03:30:33;;;;;;;;;3.75;3.75;;;;;13.01;82.58;99334.72;5097727;28;8850;-61
2022/10/22 03:33:00;;;;;;;;;4.00;4.00;;;;;13.02;83.36;99339.06;5096998;28;8902;-59
2022/10/22 03:35:28;;;;;;;;;1.00;1.00;;;;;13.08;83.09;99333.09;5097003;28;8853;-60
2022/10/22 03:37:56;;;;;;;;;5.00;5.00;;;;;13.12;82.84;99328.28;5096766;28;8830;-59
2022/10/22 03:40:23;;;;;;;;;4.50;4.50;;;;;13.14;82.85;99337.00;5096653;28;9588;-59
2022/10/22 03:42:51;;;;;;;;;3.50;3.00;;;;;13.11;83.07;99339.97;5097477;28;8899;-59
2022/10/22 03:45:18;;;;;;;;;6.00;6.00;;;;;13.14;82.51;99337.00;5096335;28;8902;-60
2022/10/22 03:47:46;;;;;;;;;4.00;4.00;;;;;13.24;82.43;99343.97;5096490;28;8846;-60
2022/10/22 03:50:14;;;;;;;;;3.75;3.50;;;;;13.31;82.43;99336.16;5096448;28;8911;-59
2022/10/22 03:52:43;;;;;;;;;5.50;4.50;;;;;13.36;82.02;99339.22;5096299;28;8840;-59
2022/10/22 03:55:11;;;;;;;;;3.00;3.00;;;;;13.46;81.89;99339.97;5096461;28;8901;-61
2022/10/22 03:57:38;;;;;;;;;4.00;4.00;;;;;13.53;81.92;99341.03;5096808;28;8838;-60
2022/10/22 04:00:06;;;;;;;;;1.50;1.00;;;;;13.60;82.05;99339.41;5096141;28;8832;-59
2022/10/22 04:02:34;;;;;;;;;3.00;3.00;;;;;13.71;81.56;99340.00;5096201;28;8852;-60
2022/10/22 04:05:01;;;;;;;;;1.00;0.25;;;;;13.82;81.13;99338.91;5096440;28;8814;-59
2022/10/22 04:07:30;;;;;;;;;3.50;3.25;;;;;13.90;81.17;99344.31;5096467;28;8861;-59
2022/10/22 04:09:57;;;;;;;;;8.00;7.00;;;;;13.94;81.25;99337.63;5096209;28;8907;-61
2022/10/22 04:12:25;;;;;;;;;6.25;6.00;;;;;14.00;80.96;99339.69;5095874;28;8826;-60
2022/10/22 04:14:53;;;;;;;;;6.00;5.00;;;;;14.05;80.81;99340.06;5095680;28;8846;-61
2022/10/22 04:17:20;;;;;;;;;3.00;2.50;;;;;13.99;81.07;99349.56;5096405;28;9726;-61
2022/10/22 04:19:48;;;;;;;;;2.50;2.50;;;;;13.88;81.44;99346.31;5096417;28;8918;-60
2022/10/22 04:22:16;;;;;;;;;3.00;3.00;;;;;13.70;81.91;99351.69;5095480;28;8923;-61
2022/10/22 04:24:43;;;;;;;;;4.00;3.75;;;;;13.53;81.75;99362.44;5096139;28;8883;-61
2022/10/22 04:27:11;;;;;;;;;4.00;3.00;;;;;13.45;82.36;99362.38;5095113;28;8865;-61
2022/10/22 04:29:38;;;;;;;;;5.00;5.00;;;;;13.45;82.33;99365.84;5095566;28;8875;-60
2022/10/22 04:32:06;;;;;;;;;6.00;4.50;;;;;13.48;82.25;99370.06;5096108;28;8853;-60
2022/10/22 04:34:34;;;;;;;;;3.00;1.50;;;;;13.42;82.46;99370.66;5096387;28;8845;-60
2022/10/22 04:37:02;;;;;;;;;3.50;3.00;;;;;13.36;82.83;99369.47;5095629;28;8834;-59
2022/10/22 04:39:29;;;;;;;;;3.50;3.25;;;;;13.33;83.11;99372.44;5095885;28;8915;-59
2022/10/22 04:41:57;;;;;;;;;6.25;4.50;;;;;13.38;82.39;99366.66;5095797;28;8838;-61
2022/10/22 04:44:25;;;;;;;;;4.00;4.00;;;;;13.56;82.39;99364.78;5096208;28;8838;-60
2022/10/22 04:46:52;;;;;;;;;9.25;7.00;;;;;13.74;82.15;99361.09;5095740;28;8818;-61
2022/10/22 04:49:20;;;;;;;;;4.00;4.00;;;;;13.90;81.38;99363.03;5094931;28;8834;-60
2022/10/22 04:51:48;;;;;;;;;10.25;9.25;;;;;14.01;81.40;99363.63;5095953;28;8918;-61
2022/10/22 04:54:15;;;;;;;;;5.75;5.50;;;;;14.13;81.34;99362.34;5096173;28;8822;-61
2022/10/22 04:56:43;;;;;;;;;4.00;3.75;;;;;14.26;81.22;99364.66;5095902;28;8834;-61
2022/10/22 04:59:12;;;;;;;;;9.50;6.75;;;;;14.35;81.05;99366.38;5095531;28;8794;-61
2022/10/22 05:01:39;;;;;;;;;9.00;7.00;;;;;14.43;80.96;99361.03;5095709;28;8837;-61
2022/10/22 05:04:09;;;;;;;;;5.25;5.25;;;;;14.47;80.73;99359.69;5095364;28;8829;-59
2022/10/22 05:06:37;;;;;;;;;5.50;5.00;;;;;14.51;80.89;99369.13;5095965;28;8818;-59
2022/10/22 05:09:05;;;;;;;;;6.50;6.00;;;;;14.48;80.62;99362.22;5095525;28;8860;-61
2022/10/22 05:11:33;;;;;;;;;4.00;3.25;;;;;14.49;80.65;99365.75;5095446;28;9546;-61
2022/10/22 05:14:00;;;;;;;;;6.25;6.25;;;;;14.45;80.92;99370.59;5094867;28;8868;-61
2022/10/22 05:16:28;;;;;;;;;5.20;4.80;;;;;14.44;80.78;99370.75;5093827;28;8865;-61
2022/10/22 05:18:56;;;;;;;;;4.00;4.00;;;;;14.41;81.08;99376.44;5093359;28;8834;-59
2022/10/22 05:21:24;;;;;;;;;6.00;4.00;;;;;14.42;81.36;99378.13;5093716;28;8834;-59
2022/10/22 05:23:51;;;;;;;;;6.50;6.00;;;;;14.43;81.41;99377.94;5094260;28;8841;-61
2022/10/22 05:26:19;;;;;;;;;10.00;9.00;;;;;14.49;81.54;99371.13;5094815;28;8907;-59
2022/10/22 05:28:46;;;;;;;;;4.00;4.00;;;;;14.50;81.29;99380.84;5093846;28;8830;-58
2022/10/22 05:31:14;;;;;;;;;6.25;6.00;;;;;14.52;81.27;99390.41;5074096;28;8909;-59
2022/10/22 05:33:42;;;;;;;;;8.00;8.00;;;;;14.53;81.53;99384.03;5074098;28;8835;-60
2022/10/22 05:36:10;;;;;;;;;6.75;6.25;;;;;14.57;80.94;99389.91;5074641;28;8925;-61
2022/10/22 05:38:37;;;;;;;;;6.75;6.75;;;;;14.59;81.65;99379.88;5076709;28;8844;-61
2022/10/22 05:41:05;;;;;;;;;6.50;6.25;;;;;14.62;81.38;99384.88;5078360;28;9624;-61
2022/10/22 05:43:33;;;;;;;;;4.00;3.50;;;;;14.65;81.22;99387.28;5078347;28;8812;-62
2022/10/22 05:46:02;;;;;;;;;4.00;4.00;;;;;14.69;81.17;99392.13;5077635;28;8863;-59
2022/10/22 05:48:29;;;;;;;;;6.50;6.00;;;;;14.73;81.09;99395.34;5078158;28;8832;-60
2022/10/22 05:51:03;;;;;;;;;6.75;6.75;;;;;14.74;80.82;99400.56;5078165;28;8839;-61
2022/10/22 05:53:31;;;;;;;;;10.00;7.00;;;;;14.74;81.52;99403.22;5078317;28;8859;-59
2022/10/22 05:55:59;;;;;;;;;6.00;5.60;;;;;14.71;81.59;99402.72;5078411;28;9545;-61
2022/10/22 05:58:26;;;;;;;;;7.00;6.50;;;;;14.71;81.11;99414.25;5085540;28;8830;-61
2022/10/22 06:00:54;;;;;;;;;9.00;8.00;;;;;14.70;81.17;99422.44;5098435;28;8915;-59
2022/10/22 06:03:23;;;;;;;;;9.40;7.40;;;;;14.69;81.23;99429.66;5098596;28;8834;-61
2022/10/22 06:05:51;;;;;;;;;8.00;6.75;;;;;14.73;81.50;99424.81;5098508;28;8918;-61
2022/10/22 06:08:18;;;;;;;;;9.00;8.50;;;;;14.77;81.30;99421.66;5096798;28;8923;-61
2022/10/22 06:10:46;;;;;;;;;7.50;7.50;;;;;14.84;80.99;99419.16;5096657;28;8838;-60
2022/10/22 06:13:14;;;;;;;;;10.00;7.50;;;;;14.93;80.85;99418.19;5096554;28;9547;-58
2022/10/22 06:15:41;;;;;;;;;7.25;7.25;;;;;14.97;81.34;99411.50;5096080;28;8911;-61
2022/10/22 06:18:09;;;;;;;;;9.25;9.00;;;;;14.99;80.71;99414.84;5096545;28;8891;-61
2022/10/22 06:20:37;;;;;;;;;3.80;3.00;;;;;15.01;81.38;99423.59;5096738;28;8830;-60
2022/10/22 06:23:05;;;;;;;;;9.40;7.00;;;;;15.00;81.26;99427.25;5097024;28;8825;-59
2022/10/22 06:25:33;;;;;;;;;10.00;9.25;;;;;15.02;81.01;99427.97;5096918;28;8811;-61
2022/10/22 06:28:01;;;;;;;;;6.50;6.50;;;;;15.05;81.56;99428.47;5096870;28;8926;-59
2022/10/22 06:30:28;;;;;;;;;8.00;7.00;;;;;15.07;81.15;99433.66;5095907;28;8870;-60
2022/10/22 06:32:56;;;;;;;;;6.00;6.00;;;;;15.05;81.46;99444.56;5095855;28;8826;-58
2022/10/22 06:35:24;;;;;;;;;9.60;8.20;;;;;15.05;80.90;99444.56;5095911;28;8838;-60
2022/10/22 06:37:52;;;;;;;;;10.00;8.60;;;;;15.05;81.77;99451.75;5095518;28;9560;-61
2022/10/22 06:40:19;;;;;;;;;9.00;6.40;;;;;15.07;81.34;99455.97;5095434;28;8821;-61
2022/10/22 06:42:47;;;;;;;;;8.80;8.60;;;;;15.11;81.47;99456.47;5095444;28;8822;-59
2022/10/22 06:45:15;;;;;;;;;5.20;3.60;;;;;15.13;81.31;99465.19;5095538;28;8837;-59
2022/10/22 06:47:43;;;;;;;;;6.00;4.40;;;;;15.14;81.79;99464.19;5095733;28;8830;-59
2022/10/22 06:50:11;;;;;;;;;1.00;1.00;;;;;15.15;81.53;99465.88;5095114;28;8849;-61
2022/10/22 06:52:38;;;;;;;;;7.00;6.40;;;;;15.16;81.26;99470.25;5095587;28;8872;-61
2022/10/22 06:55:06;;;;;;;;;4.00;4.00;;;;;15.17;81.67;99477.28;5096034;28;8822;-60
2022/10/22 06:57:34;;;;;;;;;7.80;7.40;;;;;15.18;81.97;99474.44;5095880;28;8842;-61
2022/10/22 07:00:01;;;;;;;;;7.00;6.20;;;;;15.21;81.42;99484.00;5097533;28;8915;-60
2022/10/22 07:02:29;;;;;;;;;7.40;6.80;;;;;15.22;81.29;99481.16;5096522;28;8838;-61
2022/10/22 07:04:57;;;;;;;;;4.00;4.00;;;;;15.25;80.97;99485.38;5096785;28;8822;-59
2022/10/22 07:07:24;;;;;;;;;6.40;6.00;;;;;15.29;81.42;99484.03;5095878;28;8842;-60
2022/10/22 07:09:53;;;;;;;;;6.40;6.00;;;;;15.34;81.13;99492.47;5096080;28;8834;-59
2022/10/22 07:12:21;;;;;;;;;6.00;4.40;;;;;15.40;80.83;99505.25;5095566;28;9642;-61
2022/10/22 07:14:49;;;;;;;;;4.80;4.80;;;;;15.44;81.02;99506.56;5096276;28;8922;-61
2022/10/22 07:17:17;;;;;;;;;7.00;6.80;;;;;15.50;81.17;99508.63;5095748;28;8846;-61
2022/10/22 07:19:44;;;;;;;;;6.20;6.20;;;;;15.56;80.78;99516.03;5096396;28;8829;-61
2022/10/22 07:22:17;;;;;;;;;5.20;5.20;;;;;15.62;80.88;99520.75;5096223;28;8849;-60
2022/10/22 07:24:45;;;;;;;;;5.20;4.40;;;;;15.67;80.41;99524.59;5096680;28;8962;-60
2022/10/22 07:27:13;;;;;;;;;6.80;6.00;;;;;15.75;80.50;99531.81;5096300;28;8846;-60
2022/10/22 07:29:40;;;;;;;;;7.40;7.00;;;;;15.84;80.55;99534.38;5096438;28;8838;-61
2022/10/22 07:32:08;;;;;;;;;6.00;5.60;;;;;15.93;80.39;99528.00;5096590;28;8814;-60
2022/10/22 07:34:36;;;;;;;;;7.60;5.60;;;;;16.06;80.31;99527.50;5095807;28;8822;-60
2022/10/22 07:37:09;;;;;;;;;4.40;4.40;;;;;16.23;79.99;99532.72;5095700;28;8877;-60
2022/10/22 07:39:37;;;;;;;;;5.60;4.00;;;;;16.41;79.29;99531.56;5095999;28;8814;-61
2022/10/22 07:42:04;;;;;;;;;7.00;6.60;;;;;16.59;79.20;99528.72;5096179;28;8830;-61
2022/10/22 07:44:32;;;;;;;;;4.00;3.60;;;;;16.79;79.29;99530.84;5096006;28;8838;-61
2022/10/22 07:47:00;;;;;;;;;4.00;4.00;;;;;17.01;78.53;99542.75;5095855;28;8838;-60
2022/10/22 07:49:28;;;;;;;;;6.00;6.00;;;;;17.20;78.24;99542.34;5094360;28;8822;-60
2022/10/22 07:51:56;;;;;;;;;5.20;4.00;;;;;17.34;77.25;99542.47;5095462;28;8968;-59
2022/10/22 07:54:24;;;;;;;;;5.20;4.80;;;;;17.41;77.29;99538.09;5095418;28;8849;-61
2022/10/22 07:56:52;;;;;;;;;5.60;5.60;;;;;17.44;77.84;99529.66;5095041;28;8896;-59
2022/10/22 07:59:20;;;;;;;;;3.20;3.20;;;;;17.40;77.08;99540.97;5095144;28;8934;-61
2022/10/22 08:01:48;;;;;;;;;3.00;3.00;;;;;17.30;77.95;99551.06;5093851;28;8822;-61
2022/10/22 08:04:16;;;;;;;;;6.00;4.80;;;;;17.18;77.74;99558.69;5094530;28;8844;-59
2022/10/22 08:06:43;;;;;;;;;7.00;4.00;;;;;17.09;78.15;99558.88;5095027;28;8857;-59
2022/10/22 08:09:14;;;;;;;;;0.80;0.80;;;;;17.03;78.32;99556.88;5094253;28;8853;-61
2022/10/22 08:11:42;;;;;;;;;3.40;3.40;;;;;17.13;77.64;99555.66;5093913;28;8841;-60
2022/10/22 08:14:10;;;;;;;;;4.00;4.00;;;;;17.29;77.58;99554.75;5094090;28;8852;-61
2022/10/22 08:16:38;;;;;;;;;3.00;3.00;;;;;17.42;77.22;99555.94;5094217;28;8888;-61
2022/10/22 08:19:06;;;;;;;;;3.40;3.40;;;;;17.54;77.07;99559.91;5092780;28;8964;-59
2022/10/22 08:21:33;;;;;;;;;3.60;3.60;;;;;17.68;76.74;99561.84;5093360;28;8842;-59
2022/10/22 08:24:02;;;;;;;;;7.00;5.20;;;;;17.79;76.76;99566.00;5092960;28;8848;-60
2022/10/22 08:26:30;;;;;;;;;6.00;4.00;;;;;17.85;76.20;99568.81;5092682;28;8838;-61
2022/10/22 08:28:58;;;;;;;;;3.20;3.00;;;;;17.87;76.36;99577.59;5092137;28;8826;-60
2022/10/22 08:31:25;;;;;;;;;3.60;3.00;;;;;17.91;76.07;99578.06;5091937;28;8826;-59
2022/10/22 08:33:53;;;;;;;;;5.20;4.00;;;;;17.97;76.46;99577.34;5092388;28;8826;-60
2022/10/22 08:36:21;;;;;;;;;1.40;1.40;;;;;18.06;75.88;99571.72;5092600;28;8907;-61
2022/10/22 08:38:50;;;;;;;;;3.00;3.00;;;;;18.12;75.82;99581.81;5091994;28;8864;-60
2022/10/22 08:41:18;;;;;;;;;4.20;3.40;;;;;18.18;75.64;99581.09;5091648;28;8925;-60
2022/10/22 08:43:46;;;;;;;;;3.20;3.20;;;;;18.22;75.07;99584.28;5091924;28;8852;-60
2022/10/22 08:46:13;;;;;;;;;2.20;1.80;;;;;18.23;75.09;99588.63;5092551;28;8840;-60
2022/10/22 08:48:41;;;;;;;;;4.00;3.00;;;;;18.28;75.47;99591.66;5092859;28;8959;-61
2022/10/22 08:51:09;;;;;;;;;4.00;4.00;;;;;18.30;75.29;99590.47;5093689;28;8850;-62
2022/10/22 08:53:37;;;;;;;;;3.60;3.20;;;;;18.35;74.90;99606.94;5093043;28;8864;-61
2022/10/22 08:56:05;;;;;;;;;0.60;0.60;;;;;18.37;74.90;99607.59;5092937;28;8841;-61
2022/10/22 08:58:33;;;;;;;;;1.80;1.80;;;;;18.38;74.60;99614.66;5092834;28;8844;-61
2022/10/22 09:01:01;;;;;;;;;3.00;2.60;;;;;18.34;74.54;99604.41;5093565;28;8837;-60
2022/10/22 09:03:29;;;;;;;;;3.20;1.80;;;;;18.30;74.56;99611.22;5092495;28;8830;-61
2022/10/22 09:05:57;;;;;;;;;3.00;2.20;;;;;18.24;74.92;99612.72;5092271;28;8830;-61
2022/10/22 09:08:25;;;;;;;;;3.00;3.00;;;;;18.20;74.64;99615.94;5090971;28;8852;-59
2022/10/22 09:10:53;;;;;;;;;4.20;3.00;;;;;18.20;74.34;99611.41;5090569;28;8887;-60
2022/10/22 09:13:21;;;;;;;;;4.80;3.40;;;;;18.27;74.57;99622.28;5093636;28;8886;-60
2022/10/22 09:15:49;;;;;;;;;4.00;4.00;;;;;18.31;74.32;99623.66;5094468;28;8972;-60
2022/10/22 09:18:17;;;;;;;;;2.60;2.60;;;;;18.33;73.66;99617.09;5094599;28;9523;-61
2022/10/22 09:20:45;;;;;;;;;3.20;3.20;;;;;18.30;73.57;99624.69;5093629;28;8852;-61
2022/10/22 09:23:13;;;;;;;;;4.00;4.00;;;;;18.24;73.95;99628.91;5093684;28;8838;-59
2022/10/22 09:25:41;;;;;;;;;3.60;3.60;;;;;18.16;73.46;99625.41;5094556;28;8857;-62
2022/10/22 09:28:10;;;;;;;;;3.60;3.60;;;;;18.11;74.11;99623.25;5095207;28;8850;-62
2022/10/22 09:30:38;;;;;;;;;3.00;3.00;;;;;18.05;74.19;99637.44;5094669;28;8822;-62
2022/10/22 09:33:05;;;;;;;;;3.00;3.00;;;;;18.00;74.30;99634.41;5094559;28;8842;-62
2022/10/22 09:35:33;;;;;;;;;4.00;4.00;;;;;17.90;74.32;99636.50;5094053;28;8880;-61
2022/10/22 09:38:01;;;;;;;;;3.80;3.80;;;;;17.82;74.49;99641.06;5094606;28;9597;-62
2022/10/22 09:40:29;;;;;;;;;3.00;3.00;;;;;17.76;74.94;99648.00;5094711;28;8865;-61
2022/10/22 09:42:57;;;;;;;;;4.00;4.00;;;;;17.68;74.70;99656.13;5093014;28;8837;-61
2022/10/22 09:45:25;;;;;;;;;6.00;4.40;;;;;17.59;74.26;99654.47;5093684;28;8911;-60
2022/10/22 09:47:53;;;;;;;;;2.20;2.20;;;;;17.47;74.78;99657.72;5094569;28;8858;-60
2022/10/22 09:50:29;;;;;;;;;6.20;3.20;;;;;17.30;75.49;99670.34;5093847;28;8842;-62
2022/10/22 09:52:58;;;;;;;;;4.00;3.60;;;;;17.22;75.61;99673.03;5093795;28;8896;-60
2022/10/22 09:55:25;;;;;;;;;7.00;6.00;;;;;17.16;75.36;99673.72;5094099;28;8837;-62
2022/10/22 09:57:53;;;;;;;;;3.00;3.00;;;;;17.13;75.28;99673.22;5092812;28;8872;-61
2022/10/22 10:00:23;;;;;;;;;6.00;6.00;;;;;17.12;75.75;99677.78;5092293;28;8880;-62
2022/10/22 10:02:51;;;;;;;;;4.00;4.00;;;;;17.14;75.41;99681.13;5092455;28;8893;-61
2022/10/22 10:05:19;;;;;;;;;4.00;3.80;;;;;17.20;75.13;99675.06;5093345;28;8826;-60
2022/10/22 10:07:47;;;;;;;;;3.20;3.20;;;;;17.37;75.06;99684.81;5093406;28;8845;-59
2022/10/22 10:10:15;;;;;;;;;5.20;4.00;;;;;17.54;74.32;99681.06;5093256;28;8838;-60
2022/10/22 10:12:43;;;;;;;;;6.80;4.40;;;;;17.74;74.21;99679.69;5093440;28;8867;-60
2022/10/22 10:15:16;;;;;;;;;9.00;6.00;;;;;17.91;73.67;99686.69;5093767;28;8814;-61
2022/10/22 10:17:44;;;;;;;;;5.20;4.00;;;;;17.96;73.61;99687.00;5094397;28;8830;-60
2022/10/22 10:20:12;;;;;;;;;3.80;3.80;;;;;17.95;73.20;99685.31;5095536;28;8833;-60
2022/10/22 10:22:40;;;;;;;;;5.60;4.80;;;;;17.98;73.59;99686.84;5094096;28;10008;-61
2022/10/22 10:25:08;;;;;;;;;3.80;3.80;;;;;17.97;73.33;99682.44;5093226;28;8834;-59
2022/10/22 10:27:36;;;;;;;;;5.20;3.40;;;;;17.98;73.62;99684.97;5095521;28;8842;-60
2022/10/22 10:30:04;;;;;;;;;6.40;6.00;;;;;17.98;73.45;99687.66;5094616;28;8927;-60
2022/10/22 10:32:32;;;;;;;;;5.60;4.00;;;;;17.98;73.80;99692.22;5095316;28;8830;-60
2022/10/22 10:35:00;;;;;;;;;4.80;4.80;;;;;17.97;73.30;99693.22;5095843;28;8829;-61
2022/10/22 10:37:28;;;;;;;;;4.00;4.00;;;;;17.92;73.48;99695.63;5095697;28;8868;-61
2022/10/22 10:39:55;;;;;;;;;4.00;4.00;;;;;17.85;73.86;99698.13;5094914;28;8922;-60
2022/10/22 10:42:24;;;;;;;;;2.80;2.80;;;;;17.79;73.52;99698.88;5094365;28;8826;-60
2022/10/22 10:44:51;;;;;;;;;3.20;3.00;;;;;17.72;73.51;99710.50;5094108;28;8866;-60
2022/10/22 10:47:20;;;;;;;;;8.00;6.80;;;;;17.65;73.89;99701.41;5094206;28;8838;-60
2022/10/22 10:49:48;;;;;;;;;8.20;6.40;;;;;17.59;74.03;99702.09;5093671;28;8838;-61
2022/10/22 10:52:16;;;;;;;;;5.20;4.40;;;;;17.56;74.31;99708.69;5093347;28;8830;-59
2022/10/22 10:54:47;;;;;;;;;4.40;4.00;;;;;17.55;73.70;99700.78;5094154;28;8911;-61
2022/10/22 10:57:15;;;;;;;;;4.40;3.80;;;;;17.53;74.12;99709.03;5093817;28;8849;-60
2022/10/22 10:59:43;;;;;;;;;4.40;3.00;;;;;17.52;74.56;99706.47;5093240;28;8815;-60
2022/10/22 11:02:11;;;;;;;;;3.80;3.80;;;;;17.50;74.13;99720.16;5093734;28;8861;-60
2022/10/22 11:04:39;;;;;;;;;3.60;3.60;;;;;17.43;74.38;99711.06;5093999;28;8984;-60
2022/10/22 11:07:07;;;;;;;;;1.00;1.00;;;;;17.39;74.47;99716.97;5094375;28;8855;-60
2022/10/22 11:09:49;;;;;;;;;1.40;1.40;;;;;17.33;74.56;99723.81;5094188;28;8869;-62
2022/10/22 11:12:17;;;;;;;;;0.80;0.80;;;;;17.28;74.20;99714.56;5094008;28;8831;-60
2022/10/22 11:14:46;;;;;;;;;1.00;1.00;;;;;17.23;74.82;99720.47;5092377;28;8992;-60
2022/10/22 11:17:14;;;;;;;;;2.00;2.00;;;;;17.18;74.44;99725.53;5092896;28;8857;-60
2022/10/22 11:19:43;;;;;;;;;3.60;3.20;;;;;17.16;74.79;99732.91;5091351;28;8837;-60
2022/10/22 11:22:22;;;;;;;;;3.20;3.20;;;;;17.14;74.08;99737.63;5092570;28;8884;-60
2022/10/22 11:24:53;;;;;;;;;3.20;3.00;;;;;17.12;74.73;99731.59;5092063;28;8888;-60
2022/10/22 11:27:21;;;;;;;;;3.60;3.60;;;;;17.15;74.63;99719.66;5091901;28;8834;-61
2022/10/22 11:29:49;;;;;;;;;1.00;1.00;;;;;17.17;74.23;99713.06;5092309;28;8849;-61
2022/10/22 11:32:17;;;;;;;;;1.00;1.00;;;;;17.24;74.03;99724.84;5091933;28;8859;-59
2022/10/22 11:34:44;;;;;;;;;2.60;2.60;;;;;17.28;74.14;99720.81;5091743;28;8846;-60
2022/10/22 11:37:12;;;;;;;;;2.60;2.60;;;;;17.32;73.70;99716.75;5090896;28;8988;-60
2022/10/22 11:39:40;;;;;;;;;3.00;2.20;;;;;17.35;74.03;99732.59;5091084;28;9572;-60
2022/10/22 11:42:08;;;;;;;;;1.00;1.00;;;;;17.34;73.71;99724.66;5091609;28;8972;-60
2022/10/22 11:44:36;;;;;;;;;3.00;2.60;;;;;17.31;74.31;99725.84;5091803;28;8853;-60